EHWO

Woensdrecht Air Base Airport

Bergen Op Zoom, The Netherlands
METAR EHWO 181504Z AUTO 26015KT 240V330 9999 BKN021 OVC025 07/03 Q1001 WHT
Observed Flight Rules
Jan-18 @ 15:04 UTC (33 minutes ago) Marginal Visual Flight Rules
Wind Visibility Clouds
260° at 15 knots 10,000+ meters
  • Broken at 2,100' AGL
  • Overcast at 2,500' AGL
Temperatures Readings
Current 7°C / 45°F
Dewpoint 3°C / 37°F
Humidity 76%
Altimeter 29.56" Hg
Pressure 1001 hPa
Elevation 17
METAR EHWO 181504Z AUTO 26015KT 240V330 9999 BKN021 OVC025 07/03 Q1001 WHT
Observed Flight Rules
Jan-18 @ 15:04 UTC
(33 minutes ago)
MVFR
Wind Visibility
260° at 15 knots 10,000+ meters
Clouds
  • Broken at 2,100' AGL
  • Overcast at 2,500' AGL
Temperature Dewpoint
7°C / 45°F 3°C / 37°F
Humidity Altimeter Pressure
76% 29.56" Hg 1001 hPa